createdAt,value
2022-09-01T00:00:04.052Z,16.90
2022-09-01T00:02:36.145Z,17.00
2022-09-01T00:05:07.422Z,16.90
2022-09-01T00:07:36.346Z,16.90
2022-09-01T00:10:08.236Z,16.90
2022-09-01T00:12:36.554Z,16.80
2022-09-01T00:15:08.410Z,16.80
2022-09-01T00:17:36.852Z,16.80
2022-09-01T00:20:05.685Z,16.80
2022-09-01T00:22:34.540Z,16.70
2022-09-01T00:25:03.069Z,16.70
2022-09-01T00:27:32.394Z,16.70
2022-09-01T00:30:01.349Z,16.70
2022-09-01T00:32:30.984Z,16.70
2022-09-01T00:34:59.691Z,16.60
2022-09-01T00:37:27.913Z,16.50
2022-09-01T00:39:56.178Z,16.50
2022-09-01T00:42:24.986Z,16.40
2022-09-01T00:44:53.215Z,16.40
2022-09-01T00:47:21.418Z,16.30
2022-09-01T00:49:53.252Z,16.30
2022-09-01T00:52:29.209Z,16.30
2022-09-01T00:55:00.529Z,16.30
2022-09-01T00:57:29.088Z,16.30
2022-09-01T01:00:00.373Z,16.30
2022-09-01T01:02:28.879Z,16.20
2022-09-01T01:04:59.553Z,16.20
2022-09-01T01:07:29.572Z,16.20
2022-09-01T01:09:58.473Z,16.20
2022-09-01T01:12:28.005Z,16.20
2022-09-01T01:14:57.095Z,16.10
2022-09-01T01:17:25.346Z,16.10
2022-09-01T01:20:12.971Z,16.10
2022-09-01T01:23:05.608Z,16.00
2022-09-01T01:25:40.312Z,16.00
2022-09-01T01:28:12.985Z,15.90
2022-09-01T01:30:45.742Z,15.90
2022-09-01T01:33:14.053Z,15.80
2022-09-01T01:35:43.745Z,15.90
2022-09-01T01:38:12.132Z,15.90
2022-09-01T01:40:42.287Z,15.90
2022-09-01T01:43:11.514Z,15.90
2022-09-01T01:45:40.017Z,16.00
2022-09-01T01:48:08.639Z,16.00
2022-09-01T01:50:38.259Z,16.10
2022-09-01T01:53:11.528Z,16.10
2022-09-01T01:55:43.708Z,16.20
2022-09-01T01:58:15.011Z,16.20
2022-09-01T02:00:47.492Z,16.20
2022-09-01T02:03:19.027Z,16.20
2022-09-01T02:05:49.162Z,16.20
2022-09-01T02:08:21.908Z,16.20
2022-09-01T02:10:54.210Z,16.20
2022-09-01T02:13:26.165Z,16.20
2022-09-01T02:15:59.306Z,16.10
2022-09-01T02:18:31.037Z,16.10
2022-09-01T02:21:01.040Z,16.10
2022-09-01T02:23:30.005Z,16.00
2022-09-01T02:26:18.028Z,15.90
2022-09-01T02:28:55.525Z,15.90
2022-09-01T02:31:28.919Z,15.90
2022-09-01T02:34:01.115Z,15.80
2022-09-01T02:36:32.802Z,15.80
2022-09-01T02:39:01.543Z,15.80
2022-09-01T02:41:34.432Z,15.80
2022-09-01T02:44:03.947Z,15.90
2022-09-01T02:46:32.386Z,15.90
2022-09-01T02:49:01.601Z,16.00
2022-09-01T02:51:29.948Z,16.00
2022-09-01T02:53:58.594Z,16.00
2022-09-01T02:56:27.658Z,15.90
2022-09-01T02:58:57.996Z,15.90
2022-09-01T03:01:29.675Z,15.80
2022-09-01T03:04:01.841Z,15.70
2022-09-01T03:06:34.253Z,15.50
2022-09-01T03:09:06.389Z,15.40
2022-09-01T03:11:37.085Z,15.30
2022-09-01T03:14:08.604Z,15.30
2022-09-01T03:16:37.932Z,15.20
2022-09-01T03:19:08.946Z,15.10
2022-09-01T03:21:40.079Z,15.00
2022-09-01T03:24:09.073Z,14.90
2022-09-01T03:26:37.652Z,14.70
2022-09-01T03:29:08.622Z,14.60
2022-09-01T03:31:38.268Z,14.50
2022-09-01T03:34:10.914Z,14.40
2022-09-01T03:36:50.076Z,14.40
2022-09-01T03:39:23.900Z,14.30
2022-09-01T03:41:52.335Z,14.20
2022-09-01T03:44:22.325Z,14.10
2022-09-01T03:46:51.799Z,14.10
2022-09-01T03:49:27.723Z,14.00
2022-09-01T03:51:58.678Z,14.00
2022-09-01T03:54:30.247Z,13.90
2022-09-01T03:57:00.748Z,13.80
2022-09-01T03:59:32.668Z,13.80
2022-09-01T04:02:02.810Z,13.70
2022-09-01T04:04:33.058Z,13.70
2022-09-01T04:07:01.629Z,13.60
2022-09-01T04:09:31.239Z,13.60
2022-09-01T04:11:59.466Z,13.60
2022-09-01T04:14:29.266Z,13.60
2022-09-01T04:17:18.086Z,13.50
2022-09-01T04:19:47.477Z,13.50
2022-09-01T04:22:17.643Z,13.50
2022-09-01T04:24:46.874Z,13.50
2022-09-01T04:27:18.146Z,13.50
2022-09-01T04:29:48.554Z,13.50
2022-09-01T04:32:21.356Z,13.40
2022-09-01T04:34:53.287Z,13.40
2022-09-01T04:37:23.709Z,13.30
2022-09-01T04:39:57.372Z,13.30
2022-09-01T04:42:29.254Z,13.30
2022-09-01T04:44:59.987Z,13.30
2022-09-01T04:47:41.775Z,13.30
2022-09-01T04:50:14.947Z,13.40
2022-09-01T04:53:06.877Z,13.50
2022-09-01T04:55:44.823Z,13.50
2022-09-01T04:58:18.633Z,13.50
2022-09-01T05:00:49.523Z,13.60
2022-09-01T05:03:24.235Z,13.70
2022-09-01T05:06:00.176Z,13.70
2022-09-01T05:08:29.111Z,13.80
2022-09-01T05:11:07.999Z,13.80
2022-09-01T05:13:43.329Z,13.90
2022-09-01T05:16:15.081Z,13.90
2022-09-01T05:18:49.159Z,14.00
2022-09-01T05:21:22.478Z,14.00
2022-09-01T05:23:51.928Z,14.10
2022-09-01T05:26:23.832Z,14.10
2022-09-01T05:28:56.298Z,14.20
2022-09-01T05:31:25.744Z,14.30
2022-09-01T05:33:58.153Z,14.30
2022-09-01T05:36:26.991Z,14.40
2022-09-01T05:38:59.049Z,14.60
2022-09-01T05:41:28.535Z,14.70
2022-09-01T05:44:00.607Z,14.90
2022-09-01T05:46:30.962Z,15.10
2022-09-01T05:49:01.981Z,15.30
2022-09-01T05:51:44.245Z,15.50
2022-09-01T05:54:16.372Z,15.60
2022-09-01T05:56:45.249Z,15.70
2022-09-01T05:59:25.381Z,15.90
2022-09-01T06:01:58.731Z,16.00
2022-09-01T06:04:29.962Z,16.10
2022-09-01T06:07:11.859Z,16.30
2022-09-01T06:09:47.797Z,16.40
2022-09-01T06:12:23.403Z,16.50
2022-09-01T06:14:54.419Z,16.60
2022-09-01T06:17:25.818Z,16.70
2022-09-01T06:19:58.503Z,16.80
2022-09-01T06:22:29.866Z,16.80
2022-09-01T06:25:02.710Z,16.90
2022-09-01T06:27:41.265Z,17.00
2022-09-01T06:30:15.268Z,17.00
2022-09-01T06:32:51.674Z,17.10
2022-09-01T06:35:25.126Z,17.10
2022-09-01T06:37:56.373Z,17.20
2022-09-01T06:40:54.830Z,17.20
2022-09-01T06:43:23.758Z,17.30
2022-09-01T06:45:54.519Z,17.30
2022-09-01T06:48:24.922Z,17.40
2022-09-01T06:51:20.841Z,17.50
2022-09-01T06:53:56.493Z,17.50
2022-09-01T06:56:32.282Z,17.60
2022-09-01T06:59:06.160Z,17.70
2022-09-01T07:01:36.085Z,17.70
2022-09-01T07:04:05.191Z,17.60
2022-09-01T07:06:59.394Z,17.70
2022-09-01T07:10:06.273Z,17.70
2022-09-01T07:18:26.481Z,18.10
2022-09-01T07:21:07.403Z,18.30
2022-09-01T07:24:06.033Z,18.30
2022-09-01T07:26:46.654Z,18.40
2022-09-01T07:29:16.557Z,18.40
2022-09-01T07:31:49.408Z,18.30
2022-09-01T07:38:48.100Z,18.30
2022-09-01T07:43:22.295Z,18.40
2022-09-01T07:51:55.221Z,18.80
2022-09-01T07:54:25.226Z,19.00
2022-09-01T07:56:55.772Z,19.20
2022-09-01T07:59:27.992Z,19.40
2022-09-01T08:02:13.898Z,19.50
2022-09-01T08:04:43.694Z,19.70
2022-09-01T08:07:16.056Z,19.90
2022-09-01T08:09:44.973Z,20.00
2022-09-01T08:12:16.700Z,20.10
2022-09-01T08:15:12.770Z,20.20
2022-09-01T08:17:57.323Z,20.20
2022-09-01T08:20:27.961Z,20.20
2022-09-01T08:23:26.408Z,20.10
2022-09-01T08:25:55.442Z,20.10
2022-09-01T08:28:27.307Z,20.20
2022-09-01T08:30:57.024Z,20.20
2022-09-01T08:33:27.292Z,20.20
2022-09-01T08:35:57.074Z,20.20
2022-09-01T08:38:26.086Z,20.30
2022-09-01T08:40:57.623Z,20.40
2022-09-01T08:43:49.730Z,20.40
2022-09-01T08:46:23.524Z,20.40
2022-09-01T08:49:24.386Z,20.50
2022-09-01T08:52:20.854Z,20.60
2022-09-01T08:54:53.277Z,20.90
2022-09-01T08:57:27.580Z,21.00
2022-09-01T09:00:25.614Z,21.20
2022-09-01T09:03:08.590Z,21.30
2022-09-01T09:05:58.558Z,21.50
2022-09-01T09:08:53.233Z,21.60
2022-09-01T09:11:51.506Z,21.80
2022-09-01T09:14:32.001Z,21.90
2022-09-01T09:17:01.946Z,22.00
2022-09-01T09:19:31.598Z,22.20
2022-09-01T09:22:02.410Z,22.40
2022-09-01T09:24:47.249Z,22.50
2022-09-01T09:27:20.722Z,22.50
2022-09-01T09:29:52.251Z,22.70
2022-09-01T09:32:31.322Z,23.00
2022-09-01T09:35:21.781Z,23.20
2022-09-01T09:37:50.417Z,23.40
2022-09-01T09:40:20.908Z,23.90
2022-09-01T09:43:08.011Z,24.40
2022-09-01T09:45:42.195Z,24.90
2022-09-01T09:48:29.213Z,25.40
2022-09-01T09:50:57.754Z,25.70
2022-09-01T09:53:32.497Z,25.80
2022-09-01T09:56:03.740Z,26.00
2022-09-01T09:58:38.068Z,26.10
2022-09-01T10:01:17.398Z,26.30
2022-09-01T10:03:50.902Z,26.50
2022-09-01T10:06:33.962Z,26.80
2022-09-01T10:09:06.219Z,27.10
2022-09-01T10:11:41.247Z,27.30
2022-09-01T10:14:23.600Z,27.40
2022-09-01T10:17:08.063Z,27.50
2022-09-01T10:19:40.327Z,27.60
2022-09-01T10:22:11.067Z,27.60
2022-09-01T10:24:44.680Z,27.70
2022-09-01T10:27:19.659Z,27.70
2022-09-01T10:30:12.044Z,27.70
2022-09-01T10:32:50.703Z,27.80
2022-09-01T10:35:25.783Z,28.00
2022-09-01T10:37:55.899Z,28.10
2022-09-01T10:40:41.376Z,28.20
2022-09-01T10:43:37.860Z,28.30
2022-09-01T10:46:37.999Z,28.60
2022-09-01T10:49:25.063Z,28.80
2022-09-01T10:52:03.197Z,28.80
2022-09-01T10:54:56.303Z,28.60
2022-09-01T10:57:42.373Z,28.50
2022-09-01T11:04:00.340Z,28.10
2022-09-01T11:07:26.868Z,27.60
2022-09-01T11:10:34.929Z,27.50
2022-09-01T11:13:28.152Z,27.40
2022-09-01T11:16:00.396Z,27.20
2022-09-01T11:18:31.376Z,26.60
2022-09-01T11:21:16.128Z,26.10
2022-09-01T11:23:47.029Z,26.10
2022-09-01T11:26:46.178Z,26.20
2022-09-01T11:29:48.967Z,26.30
2022-09-01T11:32:18.661Z,25.80
2022-09-01T11:34:50.059Z,25.60
2022-09-01T11:37:21.850Z,25.60
2022-09-01T11:39:55.385Z,25.80
2022-09-01T11:42:30.994Z,25.90
2022-09-01T11:45:04.258Z,25.80
2022-09-01T11:47:37.104Z,25.60
2022-09-01T11:50:09.434Z,25.60
2022-09-01T11:52:41.457Z,25.80
2022-09-01T11:55:11.862Z,25.90
2022-09-01T11:57:41.637Z,26.00
2022-09-01T12:00:12.628Z,26.20
2022-09-01T12:02:46.606Z,26.30
2022-09-01T12:05:28.826Z,26.30
2022-09-01T12:07:58.089Z,26.20
2022-09-01T12:10:33.577Z,26.10
2022-09-01T12:13:06.694Z,25.90
2022-09-01T12:15:40.984Z,25.80
2022-09-01T12:18:18.970Z,25.70
2022-09-01T12:23:25.012Z,25.50
2022-09-01T12:25:56.844Z,25.60
2022-09-01T12:28:25.997Z,25.60
2022-09-01T12:31:00.404Z,25.60
2022-09-01T12:33:29.345Z,25.60
2022-09-01T12:36:16.702Z,25.80
2022-09-01T12:38:45.002Z,26.00
2022-09-01T12:41:35.226Z,26.30
2022-09-01T12:44:30.636Z,26.50
2022-09-01T12:47:01.814Z,26.70
2022-09-01T12:49:45.250Z,26.80
2022-09-01T12:52:26.546Z,26.90
2022-09-01T12:55:09.845Z,26.90
2022-09-01T12:57:45.258Z,27.10
2022-09-01T13:00:20.380Z,27.30
2022-09-01T13:02:52.035Z,27.50
2022-09-01T13:05:25.937Z,27.60
2022-09-01T13:07:58.690Z,27.30
2022-09-01T13:10:29.674Z,27.20
2022-09-01T13:12:59.305Z,27.10
2022-09-01T13:15:27.971Z,27.10
2022-09-01T13:17:56.159Z,27.00
2022-09-01T13:20:24.547Z,27.00
2022-09-01T13:22:54.743Z,27.20
2022-09-01T13:25:24.553Z,27.30
2022-09-01T13:27:54.834Z,27.30
2022-09-01T13:30:28.420Z,27.10
2022-09-01T13:35:46.003Z,26.30
2022-09-01T13:38:16.602Z,25.80
2022-09-01T13:40:46.934Z,25.60
2022-09-01T13:43:16.602Z,25.40
2022-09-01T13:45:46.677Z,25.40
2022-09-01T13:48:16.512Z,25.40
2022-09-01T13:53:34.878Z,25.50
2022-09-01T13:56:03.275Z,25.60
2022-09-01T13:58:31.668Z,25.80
2022-09-01T14:01:02.019Z,25.90
2022-09-01T14:03:32.145Z,26.10
2022-09-01T14:06:00.371Z,26.30
2022-09-01T14:08:28.593Z,26.30
2022-09-01T14:10:56.839Z,26.00
2022-09-01T14:13:26.484Z,25.90
2022-09-01T14:15:55.331Z,25.70
2022-09-01T14:18:36.657Z,25.80
2022-09-01T14:21:05.397Z,26.00
2022-09-01T14:23:33.653Z,26.30
2022-09-01T14:26:02.041Z,26.70
2022-09-01T14:28:30.427Z,27.10
2022-09-01T14:33:28.517Z,27.50
2022-09-01T14:35:56.751Z,27.20
2022-09-01T14:38:25.109Z,26.80
2022-09-01T14:40:53.322Z,26.60
2022-09-01T14:43:22.087Z,26.60
2022-09-01T14:45:50.378Z,26.50
2022-09-01T14:48:20.606Z,26.00
2022-09-01T14:50:50.973Z,25.40
2022-09-01T14:53:20.253Z,25.00
2022-09-01T14:55:51.519Z,24.60
2022-09-01T14:58:24.141Z,24.10
2022-09-01T15:00:52.446Z,23.80
2022-09-01T15:03:22.920Z,23.40
2022-09-01T15:05:52.711Z,23.20
2022-09-01T15:08:22.008Z,23.00
2022-09-01T15:10:50.673Z,22.90
2022-09-01T15:13:18.989Z,22.90
2022-09-01T15:15:47.529Z,22.90
2022-09-01T15:18:15.765Z,22.80
2022-09-01T15:20:47.079Z,22.80
2022-09-01T15:23:19.252Z,22.80
2022-09-01T15:25:48.014Z,22.80
2022-09-01T15:28:16.687Z,22.80
2022-09-01T15:30:46.464Z,22.80
2022-09-01T15:33:16.218Z,22.90
2022-09-01T15:35:45.760Z,22.90
2022-09-01T15:38:16.089Z,22.90
2022-09-01T15:40:57.338Z,23.00
2022-09-01T15:43:27.089Z,23.10
2022-09-01T15:45:55.365Z,23.20
2022-09-01T15:48:23.506Z,23.20
2022-09-01T15:50:52.295Z,23.20
2022-09-01T15:53:20.481Z,23.20
2022-09-01T15:55:50.441Z,23.20
2022-09-01T15:58:20.188Z,23.20
2022-09-01T16:00:48.628Z,23.20
2022-09-01T16:03:16.944Z,23.20
2022-09-01T16:05:45.201Z,23.20
2022-09-01T16:08:13.824Z,23.20
2022-09-01T16:10:43.232Z,23.10
2022-09-01T16:13:13.045Z,23.10
2022-09-01T16:15:47.645Z,23.10
2022-09-01T16:18:29.778Z,23.00
2022-09-01T16:21:04.809Z,22.90
2022-09-01T16:23:42.159Z,22.80
2022-09-01T16:26:11.764Z,22.80
2022-09-01T16:28:46.124Z,22.70
2022-09-01T16:31:17.914Z,22.60
2022-09-01T16:33:51.337Z,22.60
2022-09-01T16:36:35.320Z,22.50
2022-09-01T16:39:12.656Z,22.40
2022-09-01T16:41:51.112Z,22.40
2022-09-01T16:44:40.852Z,22.30
2022-09-01T16:47:25.526Z,22.30
2022-09-01T16:50:06.171Z,22.30
2022-09-01T16:52:42.421Z,22.20
2022-09-01T16:55:23.060Z,22.20
2022-09-01T16:58:01.118Z,22.10
2022-09-01T17:00:41.560Z,22.00
2022-09-01T17:03:19.130Z,21.90
2022-09-01T17:05:55.244Z,21.80
2022-09-01T17:08:25.956Z,21.70
2022-09-01T17:10:58.931Z,21.60
2022-09-01T17:13:38.301Z,21.50
2022-09-01T17:16:11.930Z,21.40
2022-09-01T17:18:42.691Z,21.20
2022-09-01T17:21:14.967Z,21.10
2022-09-01T17:23:58.994Z,21.00
2022-09-01T17:26:28.869Z,20.90
2022-09-01T17:29:01.377Z,20.80
2022-09-01T17:31:52.523Z,20.70
2022-09-01T17:34:31.246Z,20.50
2022-09-01T17:37:10.795Z,20.40
2022-09-01T17:39:50.697Z,20.40
2022-09-01T17:42:27.409Z,20.50
2022-09-01T17:44:57.307Z,20.80
2022-09-01T17:47:37.211Z,20.90
2022-09-01T17:50:14.054Z,20.90
2022-09-01T17:52:54.716Z,20.70
2022-09-01T17:55:40.383Z,20.50
2022-09-01T17:58:19.904Z,20.30
2022-09-01T18:00:56.213Z,20.00
2022-09-01T18:03:46.414Z,19.80
2022-09-01T18:06:24.257Z,19.60
2022-09-01T18:08:57.041Z,19.50
2022-09-01T18:11:33.152Z,19.30
2022-09-01T18:14:06.469Z,19.30
2022-09-01T18:16:41.439Z,19.20
2022-09-01T18:19:17.467Z,19.20
2022-09-01T18:21:53.077Z,19.10
2022-09-01T18:24:27.436Z,19.00
2022-09-01T18:26:55.703Z,18.90
2022-09-01T18:29:29.532Z,18.80
2022-09-01T18:32:20.325Z,18.70
2022-09-01T18:35:11.641Z,18.60
2022-09-01T18:37:50.076Z,18.40
2022-09-01T18:40:27.955Z,18.30
2022-09-01T18:43:03.511Z,18.20
2022-09-01T18:45:41.861Z,18.10
2022-09-01T18:48:21.373Z,18.00
2022-09-01T18:50:55.705Z,17.90
2022-09-01T18:53:36.023Z,17.80
2022-09-01T18:56:10.784Z,17.60
2022-09-01T18:58:52.769Z,17.50
2022-09-01T19:01:30.422Z,17.40
2022-09-01T19:04:10.327Z,17.30
2022-09-01T19:06:51.737Z,17.20
2022-09-01T19:09:29.187Z,17.10
2022-09-01T19:12:13.933Z,17.10
2022-09-01T19:14:51.443Z,16.90
2022-09-01T19:17:52.442Z,16.80
2022-09-01T19:20:24.881Z,16.80
2022-09-01T19:23:02.871Z,16.70
2022-09-01T19:25:37.609Z,16.60
2022-09-01T19:28:12.297Z,16.60
2022-09-01T19:30:44.255Z,16.50
2022-09-01T19:33:15.448Z,16.40
2022-09-01T19:35:46.551Z,16.40
2022-09-01T19:38:21.293Z,16.30
2022-09-01T19:40:53.548Z,16.20
2022-09-01T19:43:22.160Z,16.10
2022-09-01T19:46:04.242Z,16.00
2022-09-01T19:48:39.445Z,16.00
2022-09-01T19:51:13.900Z,15.90
2022-09-01T19:53:49.355Z,15.80
2022-09-01T19:56:22.454Z,15.80
2022-09-01T19:59:01.247Z,15.80
2022-09-01T20:01:40.814Z,15.70
2022-09-01T20:04:18.284Z,15.70
2022-09-01T20:06:52.051Z,15.70
2022-09-01T20:09:26.720Z,15.60
2022-09-01T20:11:59.295Z,15.60
2022-09-01T20:14:41.731Z,15.50
2022-09-01T20:17:17.134Z,15.50
2022-09-01T20:19:51.050Z,15.40
2022-09-01T20:22:31.038Z,15.40
2022-09-01T20:25:10.260Z,15.40
2022-09-01T20:27:48.497Z,15.40
2022-09-01T20:30:19.716Z,15.30
2022-09-01T20:32:56.544Z,15.30
2022-09-01T20:35:30.885Z,15.20
2022-09-01T20:38:04.489Z,15.10
2022-09-01T20:40:37.914Z,15.10
2022-09-01T20:43:18.499Z,15.10
2022-09-01T20:45:47.162Z,15.00
2022-09-01T20:48:24.095Z,14.90
2022-09-01T20:50:58.400Z,14.90
2022-09-01T20:53:37.062Z,14.80
2022-09-01T20:56:13.905Z,14.70
2022-09-01T20:58:45.525Z,14.70
2022-09-01T21:01:19.306Z,14.70
2022-09-01T21:03:59.821Z,14.60
2022-09-01T21:06:43.795Z,14.60
2022-09-01T21:09:16.755Z,14.50
2022-09-01T21:11:52.564Z,14.50
2022-09-01T21:14:34.637Z,14.40
2022-09-01T21:17:10.705Z,14.40
2022-09-01T21:19:49.908Z,14.30
2022-09-01T21:22:22.107Z,14.30
2022-09-01T21:24:51.486Z,14.20
2022-09-01T21:27:24.306Z,14.20
2022-09-01T21:29:58.329Z,14.10
2022-09-01T21:32:28.999Z,14.10
2022-09-01T21:34:57.478Z,14.10
2022-09-01T21:37:27.294Z,14.00
2022-09-01T21:39:56.523Z,14.00
2022-09-01T21:42:28.597Z,14.00
2022-09-01T21:44:58.340Z,14.00
2022-09-01T21:47:28.029Z,14.00
2022-09-01T21:49:57.033Z,14.00
2022-09-01T21:52:25.624Z,14.00
2022-09-01T21:54:53.851Z,14.00
2022-09-01T21:57:23.041Z,14.00
2022-09-01T21:59:52.829Z,13.90
2022-09-01T22:02:21.210Z,13.90
2022-09-01T22:04:49.955Z,13.80
2022-09-01T22:07:21.062Z,13.80
2022-09-01T22:09:50.207Z,13.80
2022-09-01T22:12:18.660Z,13.70
2022-09-01T22:14:46.891Z,13.70
2022-09-01T22:17:16.577Z,13.60
2022-09-01T22:19:44.962Z,13.60
2022-09-01T22:22:13.191Z,13.60
2022-09-01T22:24:41.466Z,13.60
2022-09-01T22:27:09.746Z,13.60
2022-09-01T22:29:38.014Z,13.50
2022-09-01T22:32:06.460Z,13.50
2022-09-01T22:34:36.761Z,13.50
2022-09-01T22:37:05.609Z,13.50
2022-09-01T22:39:33.866Z,13.50
2022-09-01T22:42:03.538Z,13.50
2022-09-01T22:44:31.820Z,13.40
2022-09-01T22:47:00.086Z,13.40
2022-09-01T22:49:28.392Z,13.40
2022-09-01T22:51:58.058Z,13.40
2022-09-01T22:54:26.308Z,13.40
2022-09-01T22:56:54.454Z,13.40
2022-09-01T22:59:26.827Z,13.30
2022-09-01T23:01:55.240Z,13.30
2022-09-01T23:04:24.964Z,13.30
2022-09-01T23:06:54.931Z,13.30
2022-09-01T23:09:24.650Z,13.30
2022-09-01T23:11:52.907Z,13.30
2022-09-01T23:14:21.206Z,13.20
2022-09-01T23:16:51.498Z,13.20
2022-09-01T23:19:20.647Z,13.20
2022-09-01T23:21:49.129Z,13.20
2022-09-01T23:24:19.736Z,13.20
2022-09-01T23:26:50.261Z,13.20
2022-09-01T23:29:18.993Z,13.20
2022-09-01T23:31:47.396Z,13.10
2022-09-01T23:34:16.804Z,13.10
2022-09-01T23:36:45.001Z,13.10
2022-09-01T23:39:13.359Z,13.10
2022-09-01T23:41:41.769Z,13.10
2022-09-01T23:44:12.952Z,13.10
2022-09-01T23:46:44.129Z,13.10
2022-09-01T23:49:15.301Z,13.10
2022-09-01T23:51:44.070Z,13.10
2022-09-01T23:54:13.391Z,13.00
2022-09-01T23:56:42.184Z,13.00
2022-09-01T23:59:11.746Z,13.00
